sensor_id;sensor_type;location;lat;lon;timestamp;pressure;altitude;pressure_sealevel;temperature;humidity
48077;BME280;33854;57.708;12.008;2023-04-10T00:00:27;102167.75;;;4.10;100.00
48077;BME280;33854;57.708;12.008;2023-04-10T00:02:55;102163.41;;;4.08;100.00
48077;BME280;33854;57.708;12.008;2023-04-10T00:05:20;102155.69;;;4.11;100.00
48077;BME280;33854;57.708;12.008;2023-04-10T00:07:46;102158.28;;;4.12;100.00
48077;BME280;33854;57.708;12.008;2023-04-10T00:10:11;102168.63;;;4.15;100.00
48077;BME280;33854;57.708;12.008;2023-04-10T00:12:37;102165.19;;;4.18;100.00
48077;BME280;33854;57.708;12.008;2023-04-10T00:15:02;102152.25;;;4.12;100.00
48077;BME280;33854;57.708;12.008;2023-04-10T00:17:28;102160.84;;;4.14;100.00
48077;BME280;33854;57.708;12.008;2023-04-10T00:19:54;102163.47;;;4.15;100.00
48077;BME280;33854;57.708;12.008;2023-04-10T00:22:19;102160.84;;;4.11;100.00
48077;BME280;33854;57.708;12.008;2023-04-10T00:24:45;102164.31;;;4.10;100.00
48077;BME280;33854;57.708;12.008;2023-04-10T00:27:10;102159.09;;;4.00;100.00
48077;BME280;33854;57.708;12.008;2023-04-10T00:29:36;102159.09;;;4.02;100.00
48077;BME280;33854;57.708;12.008;2023-04-10T00:32:01;102159.09;;;4.05;100.00
48077;BME280;33854;57.708;12.008;2023-04-10T00:34:26;102159.13;;;4.03;100.00
48077;BME280;33854;57.708;12.008;2023-04-10T00:36:52;102164.31;;;4.07;100.00
48077;BME280;33854;57.708;12.008;2023-04-10T00:39:18;102170.31;;;4.06;100.00
48077;BME280;33854;57.708;12.008;2023-04-10T00:41:43;102169.44;;;4.02;100.00
48077;BME280;33854;57.708;12.008;2023-04-10T00:44:09;102170.28;;;3.99;100.00
48077;BME280;33854;57.708;12.008;2023-04-10T00:46:36;102184.09;;;4.06;100.00
48077;BME280;33854;57.708;12.008;2023-04-10T00:49:02;102188.41;;;4.04;100.00
48077;BME280;33854;57.708;12.008;2023-04-10T00:51:28;102179.81;;;4.07;100.00
48077;BME280;33854;57.708;12.008;2023-04-10T00:53:53;102184.09;;;4.05;100.00
48077;BME280;33854;57.708;12.008;2023-04-10T00:56:20;102181.50;;;4.03;100.00
48077;BME280;33854;57.708;12.008;2023-04-10T00:58:46;102170.31;;;4.02;100.00
48077;BME280;33854;57.708;12.008;2023-04-10T01:01:12;102171.19;;;4.09;100.00
48077;BME280;33854;57.708;12.008;2023-04-10T01:03:38;102178.91;;;4.08;100.00
48077;BME280;33854;57.708;12.008;2023-04-10T01:11:53;102175.53;;;4.21;100.00
48077;BME280;33854;57.708;12.008;2023-04-10T01:14:26;102180.72;;;4.28;100.00
48077;BME280;33854;57.708;12.008;2023-04-10T01:17:09;102178.16;;;4.27;100.00
48077;BME280;33854;57.708;12.008;2023-04-10T01:20:09;102181.59;;;4.30;100.00
48077;BME280;33854;57.708;12.008;2023-04-10T01:30:45;102186.78;;;4.38;100.00
48077;BME280;33854;57.708;12.008;2023-04-10T01:33:12;102179.00;;;4.36;100.00
48077;BME280;33854;57.708;12.008;2023-04-10T01:35:42;102183.34;;;4.39;100.00
48077;BME280;33854;57.708;12.008;2023-04-10T01:38:09;102185.06;;;4.38;100.00
48077;BME280;33854;57.708;12.008;2023-04-10T01:40:37;102182.47;;;4.32;100.00
48077;BME280;33854;57.708;12.008;2023-04-10T01:43:05;102195.38;;;4.32;100.00
48077;BME280;33854;57.708;12.008;2023-04-10T01:45:32;102196.25;;;4.33;100.00
48077;BME280;33854;57.708;12.008;2023-04-10T01:47:58;102187.59;;;4.31;100.00
48077;BME280;33854;57.708;12.008;2023-04-10T01:50:25;102188.50;;;4.34;100.00
48077;BME280;33854;57.708;12.008;2023-04-10T01:52:53;102191.94;;;4.36;100.00
48077;BME280;33854;57.708;12.008;2023-04-10T01:55:23;102180.75;;;4.37;100.00
48077;BME280;33854;57.708;12.008;2023-04-10T01:57:49;102180.75;;;4.40;100.00
48077;BME280;33854;57.708;12.008;2023-04-10T02:00:16;102166.06;;;4.29;100.00
48077;BME280;33854;57.708;12.008;2023-04-10T02:02:42;102176.44;;;4.33;100.00
48077;BME280;33854;57.708;12.008;2023-04-10T02:05:08;102174.72;;;4.32;100.00
48077;BME280;33854;57.708;12.008;2023-04-10T02:07:45;102182.44;;;4.34;100.00
48077;BME280;33854;57.708;12.008;2023-04-10T02:10:44;102176.44;;;4.27;100.00
48077;BME280;33854;57.708;12.008;2023-04-10T02:13:14;102178.09;;;4.22;100.00
48077;BME280;33854;57.708;12.008;2023-04-10T02:15:42;102172.09;;;4.23;100.00
48077;BME280;33854;57.708;12.008;2023-04-10T02:18:11;102171.22;;;4.23;100.00
48077;BME280;33854;57.708;12.008;2023-04-10T02:20:40;102176.41;;;4.26;100.00
48077;BME280;33854;57.708;12.008;2023-04-10T02:23:06;102150.53;;;4.14;100.00
48077;BME280;33854;57.708;12.008;2023-04-10T02:25:32;102145.34;;;4.11;100.00
48077;BME280;33854;57.708;12.008;2023-04-10T02:28:03;102164.34;;;4.22;100.00
48077;BME280;33854;57.708;12.008;2023-04-10T02:30:29;102164.34;;;4.22;100.00
48077;BME280;33854;57.708;12.008;2023-04-10T02:32:54;102166.06;;;4.21;100.00
48077;BME280;33854;57.708;12.008;2023-04-10T02:35:20;102166.06;;;4.20;100.00
48077;BME280;33854;57.708;12.008;2023-04-10T02:37:46;102165.19;;;4.21;100.00
48077;BME280;33854;57.708;12.008;2023-04-10T02:40:12;102162.59;;;4.19;100.00
48077;BME280;33854;57.708;12.008;2023-04-10T02:42:37;102161.75;;;4.16;100.00
48077;BME280;33854;57.708;12.008;2023-04-10T02:45:03;102153.97;;;4.14;100.00
48077;BME280;33854;57.708;12.008;2023-04-10T02:47:28;102147.97;;;4.15;100.00
48077;BME280;33854;57.708;12.008;2023-04-10T02:49:54;102144.53;;;4.13;100.00
48077;BME280;33854;57.708;12.008;2023-04-10T02:52:20;102149.69;;;4.13;100.00
48077;BME280;33854;57.708;12.008;2023-04-10T02:54:45;102141.94;;;4.13;100.00
48077;BME280;33854;57.708;12.008;2023-04-10T02:57:11;102139.34;;;4.10;100.00
48077;BME280;33854;57.708;12.008;2023-04-10T02:59:37;102129.03;;;4.13;100.00
48077;BME280;33854;57.708;12.008;2023-04-10T03:02:02;102128.13;;;4.11;100.00
48077;BME280;33854;57.708;12.008;2023-04-10T03:04:31;102129.00;;;4.10;100.00
48077;BME280;33854;57.708;12.008;2023-04-10T03:06:56;102122.09;;;4.06;100.00
48077;BME280;33854;57.708;12.008;2023-04-10T03:09:21;102118.66;;;4.04;100.00
48077;BME280;33854;57.708;12.008;2023-04-10T03:11:47;102108.31;;;4.04;100.00
48077;BME280;33854;57.708;12.008;2023-04-10T03:14:12;102114.34;;;4.08;100.00
48077;BME280;33854;57.708;12.008;2023-04-10T03:16:38;102111.75;;;4.06;100.00
48077;BME280;33854;57.708;12.008;2023-04-10T03:19:03;102110.03;;;4.05;100.00
48077;BME280;33854;57.708;12.008;2023-04-10T03:21:29;102110.03;;;4.05;100.00
48077;BME280;33854;57.708;12.008;2023-04-10T03:23:54;102111.75;;;4.00;100.00
48077;BME280;33854;57.708;12.008;2023-04-10T03:26:20;102100.53;;;3.87;100.00
48077;BME280;33854;57.708;12.008;2023-04-10T03:28:48;102110.03;;;3.96;100.00
48077;BME280;33854;57.708;12.008;2023-04-10T03:31:13;102103.97;;;3.91;100.00
48077;BME280;33854;57.708;12.008;2023-04-10T03:33:39;102108.28;;;3.93;100.00
48077;BME280;33854;57.708;12.008;2023-04-10T03:36:05;102103.97;;;3.89;100.00
48077;BME280;33854;57.708;12.008;2023-04-10T03:38:30;102103.97;;;3.89;100.00
48077;BME280;33854;57.708;12.008;2023-04-10T03:40:56;102089.31;;;3.82;100.00
48077;BME280;33854;57.708;12.008;2023-04-10T03:43:21;102090.16;;;3.80;100.00
48077;BME280;33854;57.708;12.008;2023-04-10T03:45:47;102081.53;;;3.72;100.00
48077;BME280;33854;57.708;12.008;2023-04-10T03:48:12;102087.56;;;3.69;100.00
48077;BME280;33854;57.708;12.008;2023-04-10T03:50:38;102087.50;;;3.65;100.00
48077;BME280;33854;57.708;12.008;2023-04-10T03:53:03;102085.81;;;3.67;100.00
48077;BME280;33854;57.708;12.008;2023-04-10T03:55:29;102083.22;;;3.64;100.00
48077;BME280;33854;57.708;12.008;2023-04-10T03:57:55;102076.31;;;3.57;100.00
48077;BME280;33854;57.708;12.008;2023-04-10T04:00:20;102084.91;;;3.53;100.00
48077;BME280;33854;57.708;12.008;2023-04-10T04:02:47;102077.16;;;3.51;100.00
48077;BME280;33854;57.708;12.008;2023-04-10T04:05:14;102071.97;;;3.47;100.00
48077;BME280;33854;57.708;12.008;2023-04-10T04:07:40;102066.78;;;3.40;100.00
48077;BME280;33854;57.708;12.008;2023-04-10T04:10:05;102064.19;;;3.42;100.00
48077;BME280;33854;57.708;12.008;2023-04-10T04:12:31;102068.50;;;3.41;100.00
48077;BME280;33854;57.708;12.008;2023-04-10T04:14:56;102058.16;;;3.37;100.00
48077;BME280;33854;57.708;12.008;2023-04-10T04:17:22;102051.28;;;3.34;100.00
48077;BME280;33854;57.708;12.008;2023-04-10T04:19:47;102051.25;;;3.33;100.00
48077;BME280;33854;57.708;12.008;2023-04-10T04:22:14;102046.94;;;3.30;100.00
48077;BME280;33854;57.708;12.008;2023-04-10T04:24:39;102048.69;;;3.31;100.00
48077;BME280;33854;57.708;12.008;2023-04-10T04:27:05;102041.78;;;3.33;100.00
48077;BME280;33854;57.708;12.008;2023-04-10T04:29:30;102045.25;;;3.37;100.00
48077;BME280;33854;57.708;12.008;2023-04-10T04:31:56;102040.94;;;3.36;100.00
48077;BME280;33854;57.708;12.008;2023-04-10T04:34:21;102047.00;;;3.38;100.00
48077;BME280;33854;57.708;12.008;2023-04-10T04:36:46;102047.88;;;3.38;100.00
48077;BME280;33854;57.708;12.008;2023-04-10T04:39:12;102046.97;;;3.39;100.00
48077;BME280;33854;57.708;12.008;2023-04-10T04:41:37;102045.25;;;3.37;100.00
48077;BME280;33854;57.708;12.008;2023-04-10T04:44:04;102050.44;;;3.43;100.00
48077;BME280;33854;57.708;12.008;2023-04-10T04:46:30;102048.72;;;3.45;100.00
48077;BME280;33854;57.708;12.008;2023-04-10T04:48:56;102050.47;;;3.46;100.00
48077;BME280;33854;57.708;12.008;2023-04-10T04:51:21;102046.16;;;3.43;100.00
48077;BME280;33854;57.708;12.008;2023-04-10T04:53:47;102041.88;;;3.47;100.00
48077;BME280;33854;57.708;12.008;2023-04-10T04:56:12;102045.31;;;3.54;100.00
48077;BME280;33854;57.708;12.008;2023-04-10T04:58:37;102050.53;;;3.61;100.00
48077;BME280;33854;57.708;12.008;2023-04-10T05:01:03;102050.56;;;3.75;100.00
48077;BME280;33854;57.708;12.008;2023-04-10T05:03:29;102039.47;;;4.21;100.00
48077;BME280;33854;57.708;12.008;2023-04-10T05:05:55;102044.63;;;4.15;100.00
48077;BME280;33854;57.708;12.008;2023-04-10T05:08:21;102049.75;;;3.97;100.00
48077;BME280;33854;57.708;12.008;2023-04-10T05:10:47;102052.31;;;3.89;100.00
48077;BME280;33854;57.708;12.008;2023-04-10T05:13:12;102050.56;;;3.85;100.00
48077;BME280;33854;57.708;12.008;2023-04-10T05:15:39;102048.88;;;3.81;100.00
48077;BME280;33854;57.708;12.008;2023-04-10T05:18:05;102051.41;;;3.77;100.00
48077;BME280;33854;57.708;12.008;2023-04-10T05:20:33;102048.00;;;3.81;100.00
48077;BME280;33854;57.708;12.008;2023-04-10T05:22:59;102054.00;;;3.80;100.00
48077;BME280;33854;57.708;12.008;2023-04-10T05:25:24;102051.47;;;3.84;100.00
48077;BME280;33854;57.708;12.008;2023-04-10T05:27:50;102046.28;;;3.86;100.00
48077;BME280;33854;57.708;12.008;2023-04-10T05:30:15;102051.47;;;3.87;100.00
48077;BME280;33854;57.708;12.008;2023-04-10T05:32:41;102020.47;;;3.81;100.00
48077;BME280;33854;57.708;12.008;2023-04-10T05:35:06;102036.84;;;3.92;100.00
48077;BME280;33854;57.708;12.008;2023-04-10T05:37:32;102023.91;;;3.91;100.00
48077;BME280;33854;57.708;12.008;2023-04-10T05:39:58;102029.09;;;3.98;100.00
48077;BME280;33854;57.708;12.008;2023-04-10T05:42:23;102023.94;;;4.01;100.00
48077;BME280;33854;57.708;12.008;2023-04-10T05:44:49;102024.81;;;4.10;100.00
48077;BME280;33854;57.708;12.008;2023-04-10T05:47:15;102019.63;;;4.17;100.00
48077;BME280;33854;57.708;12.008;2023-04-10T05:49:40;102019.63;;;4.23;100.00
48077;BME280;33854;57.708;12.008;2023-04-10T05:52:05;102026.53;;;4.30;100.00
48077;BME280;33854;57.708;12.008;2023-04-10T05:54:31;102022.22;;;4.35;100.00
48077;BME280;33854;57.708;12.008;2023-04-10T05:56:56;102018.75;;;4.39;100.00
48077;BME280;33854;57.708;12.008;2023-04-10T05:59:22;102017.91;;;4.48;100.00
48077;BME280;33854;57.708;12.008;2023-04-10T06:01:47;102020.47;;;4.54;100.00
48077;BME280;33854;57.708;12.008;2023-04-10T06:04:13;102013.59;;;4.59;100.00
48077;BME280;33854;57.708;12.008;2023-04-10T06:06:39;102007.56;;;4.65;100.00
48077;BME280;33854;57.708;12.008;2023-04-10T06:09:05;102013.56;;;4.71;100.00
48077;BME280;33854;57.708;12.008;2023-04-10T06:11:30;102001.50;;;4.72;100.00
48077;BME280;33854;57.708;12.008;2023-04-10T06:13:56;101997.19;;;4.75;100.00
48077;BME280;33854;57.708;12.008;2023-04-10T06:16:21;101988.56;;;4.81;100.00
48077;BME280;33854;57.708;12.008;2023-04-10T06:18:46;101995.44;;;4.86;100.00
48077;BME280;33854;57.708;12.008;2023-04-10T06:21:12;102002.34;;;4.87;100.00
48077;BME280;33854;57.708;12.008;2023-04-10T06:23:38;101999.72;;;4.98;100.00
48077;BME280;33854;57.708;12.008;2023-04-10T06:26:05;101992.81;;;4.98;100.00
48077;BME280;33854;57.708;12.008;2023-04-10T06:28:30;101998.78;;;5.11;100.00
48077;BME280;33854;57.708;12.008;2023-04-10T06:30:56;101996.19;;;5.20;100.00
48077;BME280;33854;57.708;12.008;2023-04-10T06:33:21;101976.38;;;5.16;100.00
48077;BME280;33854;57.708;12.008;2023-04-10T06:35:47;101993.56;;;5.29;100.00
48077;BME280;33854;57.708;12.008;2023-04-10T06:38:12;101996.97;;;5.37;100.00
48077;BME280;33854;57.708;12.008;2023-04-10T06:40:38;101996.94;;;5.48;100.00
48077;BME280;33854;57.708;12.008;2023-04-10T06:43:03;101988.25;;;5.56;100.00
48077;BME280;33854;57.708;12.008;2023-04-10T06:45:29;101990.81;;;5.62;100.00
48077;BME280;33854;57.708;12.008;2023-04-10T06:47:54;101995.09;;;5.63;100.00
48077;BME280;33854;57.708;12.008;2023-04-10T06:50:19;101982.97;;;5.73;100.00
48077;BME280;33854;57.708;12.008;2023-04-10T06:52:46;101992.38;;;5.89;100.00
48077;BME280;33854;57.708;12.008;2023-04-10T06:55:11;101982.75;;;6.06;100.00
48077;BME280;33854;57.708;12.008;2023-04-10T06:57:37;101962.06;;;6.02;100.00
48077;BME280;33854;57.708;12.008;2023-04-10T07:00:04;101972.19;;;6.30;100.00
48077;BME280;33854;57.708;12.008;2023-04-10T07:02:29;101979.88;;;6.41;100.00
48077;BME280;33854;57.708;12.008;2023-04-10T07:04:55;101974.59;;;6.50;100.00
48077;BME280;33854;57.708;12.008;2023-04-10T07:07:21;101976.19;;;6.65;100.00
48077;BME280;33854;57.708;12.008;2023-04-10T07:09:46;101981.25;;;6.77;100.00
48077;BME280;33854;57.708;12.008;2023-04-10T07:12:12;101982.00;;;6.88;100.00
48077;BME280;33854;57.708;12.008;2023-04-10T07:14:37;101982.69;;;7.01;100.00
48077;BME280;33854;57.708;12.008;2023-04-10T07:17:02;101977.47;;;7.05;100.00
48077;BME280;33854;57.708;12.008;2023-04-10T07:19:28;101972.25;;;7.07;100.00
48077;BME280;33854;57.708;12.008;2023-04-10T07:21:54;101977.38;;;7.13;100.00
48077;BME280;33854;57.708;12.008;2023-04-10T07:24:19;101980.72;;;7.22;100.00
48077;BME280;33854;57.708;12.008;2023-04-10T07:26:45;101973.59;;;7.38;100.00
48077;BME280;33854;57.708;12.008;2023-04-10T07:29:11;101962.38;;;7.36;100.00
48077;BME280;33854;57.708;12.008;2023-04-10T07:31:36;101963.00;;;7.53;100.00
48077;BME280;33854;57.708;12.008;2023-04-10T07:34:02;101957.75;;;7.56;100.00
48077;BME280;33854;57.708;12.008;2023-04-10T07:36:28;101945.69;;;7.52;100.00
48077;BME280;33854;57.708;12.008;2023-04-10T07:38:54;101928.59;;;7.37;100.00
48077;BME280;33854;57.708;12.008;2023-04-10T07:41:20;101948.34;;;7.47;100.00
48077;BME280;33854;57.708;12.008;2023-04-10T07:43:46;101955.31;;;7.44;100.00
48077;BME280;33854;57.708;12.008;2023-04-10T07:46:12;101944.19;;;7.36;100.00
48077;BME280;33854;57.708;12.008;2023-04-10T07:48:37;101945.78;;;7.46;100.00
48077;BME280;33854;57.708;12.008;2023-04-10T07:51:03;101942.22;;;7.53;100.00
48077;BME280;33854;57.708;12.008;2023-04-10T07:53:28;101948.19;;;7.58;100.00
48077;BME280;33854;57.708;12.008;2023-04-10T07:55:54;101938.59;;;7.65;100.00
48077;BME280;33854;57.708;12.008;2023-04-10T07:58:20;101936.66;;;7.77;100.00
48077;BME280;33854;57.708;12.008;2023-04-10T08:00:45;101938.09;;;7.96;100.00
48077;BME280;33854;57.708;12.008;2023-04-10T08:03:11;101931.78;;;8.10;100.00
48077;BME280;33854;57.708;12.008;2023-04-10T08:05:37;101924.84;;;8.10;100.00
48077;BME280;33854;57.708;12.008;2023-04-10T08:08:03;101931.06;;;8.01;100.00
48077;BME280;33854;57.708;12.008;2023-04-10T08:10:28;101925.75;;;8.08;100.00
48077;BME280;33854;57.708;12.008;2023-04-10T08:12:54;101921.16;;;8.23;100.00
48077;BME280;33854;57.708;12.008;2023-04-10T08:15:19;101914.13;;;8.31;100.00
48077;BME280;33854;57.708;12.008;2023-04-10T08:17:45;101918.38;;;8.35;100.00
48077;BME280;33854;57.708;12.008;2023-04-10T08:20:11;101914.78;;;8.42;100.00
48077;BME280;33854;57.708;12.008;2023-04-10T08:22:36;101897.50;;;8.38;100.00
48077;BME280;33854;57.708;12.008;2023-04-10T08:25:03;101910.13;;;8.58;100.00
48077;BME280;33854;57.708;12.008;2023-04-10T08:27:28;101894.34;;;8.67;100.00
48077;BME280;33854;57.708;12.008;2023-04-10T08:29:55;101888.91;;;8.79;100.00
48077;BME280;33854;57.708;12.008;2023-04-10T08:32:20;101891.19;;;8.94;100.00
48077;BME280;33854;57.708;12.008;2023-04-10T08:34:46;101880.91;;;8.88;100.00
48077;BME280;33854;57.708;12.008;2023-04-10T08:37:11;101884.06;;;9.02;100.00
48077;BME280;33854;57.708;12.008;2023-04-10T08:39:40;101875.28;;;9.08;100.00
48077;BME280;33854;57.708;12.008;2023-04-10T08:42:05;101879.22;;;9.26;100.00
48077;BME280;33854;57.708;12.008;2023-04-10T08:44:31;101884.38;;;9.27;100.00
48077;BME280;33854;57.708;12.008;2023-04-10T08:46:58;101887.63;;;9.38;100.00
48077;BME280;33854;57.708;12.008;2023-04-10T08:49:32;101886.63;;;9.44;100.00
48077;BME280;33854;57.708;12.008;2023-04-10T08:52:01;101875.06;;;9.55;100.00
48077;BME280;33854;57.708;12.008;2023-04-10T08:54:32;101864.47;;;9.61;100.00
48077;BME280;33854;57.708;12.008;2023-04-10T08:56:58;101869.22;;;9.81;100.00
48077;BME280;33854;57.708;12.008;2023-04-10T08:59:29;101867.28;;;9.89;100.00
48077;BME280;33854;57.708;12.008;2023-04-10T09:01:55;101871.66;;;9.87;100.00
48077;BME280;33854;57.708;12.008;2023-04-10T09:04:23;101870.09;;;9.80;100.00
48077;BME280;33854;57.708;12.008;2023-04-10T09:06:49;101856.78;;;9.92;100.00
48077;BME280;33854;57.708;12.008;2023-04-10T09:09:14;101857.94;;;9.79;100.00
48077;BME280;33854;57.708;12.008;2023-04-10T09:14:28;101854.25;;;9.89;100.00
48077;BME280;33854;57.708;12.008;2023-04-10T09:19:35;101853.84;;;10.04;100.00
48077;BME280;33854;57.708;12.008;2023-04-10T09:22:01;101841.63;;;10.06;100.00
48077;BME280;33854;57.708;12.008;2023-04-10T09:24:26;101813.47;;;9.87;100.00
48077;BME280;33854;57.708;12.008;2023-04-10T09:26:52;101836.00;;;9.88;100.00
48077;BME280;33854;57.708;12.008;2023-04-10T09:29:18;101828.75;;;9.99;100.00
48077;BME280;33854;57.708;12.008;2023-04-10T09:31:44;101815.47;;;10.08;100.00
48077;BME280;33854;57.708;12.008;2023-04-10T09:36:42;101800.69;;;10.41;100.00
48077;BME280;33854;57.708;12.008;2023-04-10T09:39:09;101812.56;;;10.51;100.00
48077;BME280;33854;57.708;12.008;2023-04-10T09:41:52;101811.53;;;10.56;100.00
48077;BME280;33854;57.708;12.008;2023-04-10T09:44:30;101805.19;;;10.65;100.00
48077;BME280;33854;57.708;12.008;2023-04-10T09:47:15;101788.91;;;10.86;98.50
48077;BME280;33854;57.708;12.008;2023-04-10T09:52:21;101772.94;;;10.67;94.77
48077;BME280;33854;57.708;12.008;2023-04-10T09:54:47;101781.06;;;10.86;95.23
48077;BME280;33854;57.708;12.008;2023-04-10T09:57:16;101779.78;;;10.99;93.99
48077;BME280;33854;57.708;12.008;2023-04-10T09:59:49;101776.69;;;11.14;92.00
48077;BME280;33854;57.708;12.008;2023-04-10T10:02:23;101770.78;;;11.35;90.78
48077;BME280;33854;57.708;12.008;2023-04-10T10:04:50;101760.22;;;11.38;89.07
48077;BME280;33854;57.708;12.008;2023-04-10T10:07:18;101768.88;;;11.40;88.07
48077;BME280;33854;57.708;12.008;2023-04-10T10:09:45;101767.25;;;11.36;87.07
48077;BME280;33854;57.708;12.008;2023-04-10T10:12:13;101756.56;;;11.18;83.91
48077;BME280;33854;57.708;12.008;2023-04-10T10:15:00;101750.53;;;10.88;77.99
48077;BME280;33854;57.708;12.008;2023-04-10T10:17:33;101749.81;;;10.83;74.63
48077;BME280;33854;57.708;12.008;2023-04-10T10:20:06;101750.31;;;10.96;76.68
48077;BME280;33854;57.708;12.008;2023-04-10T10:22:33;101749.22;;;11.29;76.30
48077;BME280;33854;57.708;12.008;2023-04-10T10:25:00;101736.72;;;11.38;73.45
48077;BME280;33854;57.708;12.008;2023-04-10T10:27:27;101735.47;;;11.49;74.18
48077;BME280;33854;57.708;12.008;2023-04-10T10:29:56;101729.50;;;11.71;75.56
48077;BME280;33854;57.708;12.008;2023-04-10T10:32:24;101720.00;;;11.42;70.44
48077;BME280;33854;57.708;12.008;2023-04-10T10:34:51;101723.06;;;11.30;72.02
48077;BME280;33854;57.708;12.008;2023-04-10T10:37:18;101710.69;;;11.60;73.89
48077;BME280;33854;57.708;12.008;2023-04-10T10:45:49;101701.03;;;11.62;72.21
48077;BME280;33854;57.708;12.008;2023-04-10T10:48:15;101697.53;;;11.88;72.53
48077;BME280;33854;57.708;12.008;2023-04-10T10:50:53;101682.75;;;11.87;70.74
48077;BME280;33854;57.708;12.008;2023-04-10T10:55:58;101686.25;;;12.32;70.95
48077;BME280;33854;57.708;12.008;2023-04-10T11:01:14;101681.06;;;12.54;72.13
48077;BME280;33854;57.708;12.008;2023-04-10T11:03:40;101670.94;;;12.67;70.59
48077;BME280;33854;57.708;12.008;2023-04-10T11:06:10;101660.25;;;12.51;70.21
48077;BME280;33854;57.708;12.008;2023-04-10T11:08:58;101654.97;;;12.06;69.84
48077;BME280;33854;57.708;12.008;2023-04-10T11:11:26;101660.44;;;12.23;70.48
48077;BME280;33854;57.708;12.008;2023-04-10T11:16:18;101642.69;;;12.53;71.00
48077;BME280;33854;57.708;12.008;2023-04-10T11:24:05;101636.66;;;13.14;69.51
48077;BME280;33854;57.708;12.008;2023-04-10T11:29:44;101615.59;;;13.77;68.75
48077;BME280;33854;57.708;12.008;2023-04-10T11:31:54;101622.50;;;13.78;68.36
48077;BME280;33854;57.708;12.008;2023-04-10T11:34:20;101588.94;;;13.47;67.71
48077;BME280;33854;57.708;12.008;2023-04-10T11:36:46;101597.88;;;13.43;68.09
48077;BME280;33854;57.708;12.008;2023-04-10T11:39:15;101602.53;;;13.16;69.54
48077;BME280;33854;57.708;12.008;2023-04-10T11:41:48;101601.91;;;12.89;69.00
48077;BME280;33854;57.708;12.008;2023-04-10T11:44:30;101593.97;;;12.71;70.10
48077;BME280;33854;57.708;12.008;2023-04-10T11:46:56;101588.28;;;13.01;70.67
48077;BME280;33854;57.708;12.008;2023-04-10T11:49:28;101580.50;;;13.40;69.44
48077;BME280;33854;57.708;12.008;2023-04-10T11:51:54;101570.03;;;13.78;70.05
48077;BME280;33854;57.708;12.008;2023-04-10T11:54:22;101555.31;;;13.56;68.84
48077;BME280;33854;57.708;12.008;2023-04-10T11:57:02;101549.31;;;13.34;67.91
48077;BME280;33854;57.708;12.008;2023-04-10T11:59:29;101554.13;;;13.43;68.55
48077;BME280;33854;57.708;12.008;2023-04-10T12:02:12;101553.88;;;13.87;68.18
48077;BME280;33854;57.708;12.008;2023-04-10T12:04:41;101557.63;;;14.37;67.79
48077;BME280;33854;57.708;12.008;2023-04-10T12:07:08;101543.41;;;14.58;67.10
48077;BME280;33854;57.708;12.008;2023-04-10T12:09:33;101540.72;;;14.94;66.11
48077;BME280;33854;57.708;12.008;2023-04-10T12:12:06;101530.47;;;15.22;65.08
48077;BME280;33854;57.708;12.008;2023-04-10T12:14:37;101529.69;;;14.88;64.55
48077;BME280;33854;57.708;12.008;2023-04-10T12:17:05;101525.91;;;14.76;63.88
48077;BME280;33854;57.708;12.008;2023-04-10T12:19:32;101523.41;;;14.73;63.85
48077;BME280;33854;57.708;12.008;2023-04-10T12:21:58;101517.41;;;14.71;63.20
48077;BME280;33854;57.708;12.008;2023-04-10T12:24:45;101517.81;;;15.46;62.47
48077;BME280;33854;57.708;12.008;2023-04-10T12:29:40;101501.41;;;16.80;59.86
48077;BME280;33854;57.708;12.008;2023-04-10T12:32:07;101491.38;;;16.71;56.80
48077;BME280;33854;57.708;12.008;2023-04-10T12:34:33;101490.13;;;17.06;56.01
48077;BME280;33854;57.708;12.008;2023-04-10T12:36:59;101486.44;;;17.37;54.88
48077;BME280;33854;57.708;12.008;2023-04-10T12:39:24;101486.63;;;18.03;54.69
48077;BME280;33854;57.708;12.008;2023-04-10T12:41:50;101478.97;;;18.26;52.02
48077;BME280;33854;57.708;12.008;2023-04-10T12:44:16;101476.44;;;18.51;50.29
48077;BME280;33854;57.708;12.008;2023-04-10T12:46:43;101465.53;;;17.89;50.54
48077;BME280;33854;57.708;12.008;2023-04-10T12:49:10;101479.22;;;16.55;51.27
48077;BME280;33854;57.708;12.008;2023-04-10T12:51:48;101474.75;;;15.95;54.04
48077;BME280;33854;57.708;12.008;2023-04-10T12:56:52;101458.88;;;16.57;55.79
48077;BME280;33854;57.708;12.008;2023-04-10T12:59:18;101459.59;;;17.02;52.37
48077;BME280;33854;57.708;12.008;2023-04-10T13:01:43;101449.81;;;17.19;52.45
48077;BME280;33854;57.708;12.008;2023-04-10T13:04:08;101440.91;;;18.15;52.48
48077;BME280;33854;57.708;12.008;2023-04-10T13:06:44;101431.69;;;18.08;49.03
48077;BME280;33854;57.708;12.008;2023-04-10T13:09:11;101445.13;;;16.95;50.94
48077;BME280;33854;57.708;12.008;2023-04-10T13:11:37;101437.00;;;17.27;51.18
48077;BME280;33854;57.708;12.008;2023-04-10T13:14:02;101421.75;;;17.03;51.45
48077;BME280;33854;57.708;12.008;2023-04-10T13:16:28;101429.72;;;17.44;50.88
48077;BME280;33854;57.708;12.008;2023-04-10T13:18:53;101428.53;;;17.22;50.00
48077;BME280;33854;57.708;12.008;2023-04-10T13:21:19;101411.06;;;17.19;50.13
48077;BME280;33854;57.708;12.008;2023-04-10T13:23:47;101410.63;;;18.46;50.68
48077;BME280;33854;57.708;12.008;2023-04-10T13:26:13;101407.63;;;19.26;49.16
48077;BME280;33854;57.708;12.008;2023-04-10T13:28:38;101409.38;;;18.77;47.05
48077;BME280;33854;57.708;12.008;2023-04-10T13:31:04;101405.34;;;19.09;47.32